sensor_id;sensor_type;location;lat;lon;timestamp;pressure;altitude;pressure_sealevel;temperature;humidity
51099;BME280;37146;48.210;16.234;2023-04-01T00:01:39;97397.72;;;9.08;81.25
51099;BME280;37146;48.210;16.234;2023-04-01T00:04:04;97403.25;;;9.05;81.65
51099;BME280;37146;48.210;16.234;2023-04-01T00:06:30;97404.75;;;9.09;81.00
51099;BME280;37146;48.210;16.234;2023-04-01T00:08:55;97405.91;;;9.05;81.05
51099;BME280;37146;48.210;16.234;2023-04-01T00:11:20;97415.22;;;9.00;80.70
51099;BME280;37146;48.210;16.234;2023-04-01T00:13:46;97421.41;;;9.00;81.51
51099;BME280;37146;48.210;16.234;2023-04-01T00:16:12;97429.63;;;8.97;81.20
51099;BME280;37146;48.210;16.234;2023-04-01T00:18:37;97425.47;;;8.93;81.44
51099;BME280;37146;48.210;16.234;2023-04-01T00:21:02;97427.38;;;9.04;80.33
51099;BME280;37146;48.210;16.234;2023-04-01T00:23:28;97441.53;;;9.04;80.20
51099;BME280;37146;48.210;16.234;2023-04-01T00:25:53;97430.50;;;8.97;80.41
51099;BME280;37146;48.210;16.234;2023-04-01T00:28:19;97438.88;;;9.04;80.01
51099;BME280;37146;48.210;16.234;2023-04-01T00:30:45;97434.84;;;9.11;78.77
51099;BME280;37146;48.210;16.234;2023-04-01T00:33:10;97436.41;;;9.14;78.46
51099;BME280;37146;48.210;16.234;2023-04-01T00:35:36;97433.88;;;9.12;79.03
51099;BME280;37146;48.210;16.234;2023-04-01T00:38:02;97430.47;;;9.10;79.21
51099;BME280;37146;48.210;16.234;2023-04-01T00:40:29;97424.16;;;8.98;79.29
51099;BME280;37146;48.210;16.234;2023-04-01T00:42:55;97424.59;;;9.05;79.33
51099;BME280;37146;48.210;16.234;2023-04-01T00:45:28;97426.84;;;8.98;80.12
51099;BME280;37146;48.210;16.234;2023-04-01T00:47:54;97427.16;;;9.07;79.20
51099;BME280;37146;48.210;16.234;2023-04-01T00:50:19;97423.75;;;9.05;79.36
51099;BME280;37146;48.210;16.234;2023-04-01T00:52:46;97416.59;;;9.05;79.17
51099;BME280;37146;48.210;16.234;2023-04-01T00:55:11;97416.25;;;9.10;78.64
51099;BME280;37146;48.210;16.234;2023-04-01T00:57:39;97418.63;;;9.02;79.02
51099;BME280;37146;48.210;16.234;2023-04-01T01:00:06;97406.88;;;9.04;78.86
51099;BME280;37146;48.210;16.234;2023-04-01T01:02:34;97405.91;;;9.05;78.59
51099;BME280;37146;48.210;16.234;2023-04-01T01:05:00;97404.13;;;9.06;77.75
51099;BME280;37146;48.210;16.234;2023-04-01T01:07:28;97405.81;;;9.07;78.19
51099;BME280;37146;48.210;16.234;2023-04-01T01:12:45;97405.91;;;9.05;78.39
51099;BME280;37146;48.210;16.234;2023-04-01T01:28:14;97396.22;;;9.04;78.13
51099;BME280;37146;48.210;16.234;2023-04-01T01:30:51;97387.25;;;9.05;77.99
51099;BME280;37146;48.210;16.234;2023-04-01T01:33:24;97382.16;;;9.02;78.12
51099;BME280;37146;48.210;16.234;2023-04-01T01:35:52;97375.00;;;9.03;78.66
51099;BME280;37146;48.210;16.234;2023-04-01T01:38:23;97365.19;;;9.03;78.55
51099;BME280;37146;48.210;16.234;2023-04-01T01:40:50;97368.28;;;8.97;79.30
51099;BME280;37146;48.210;16.234;2023-04-01T01:43:19;97367.13;;;8.88;79.82
51099;BME280;37146;48.210;16.234;2023-04-01T01:45:47;97359.13;;;9.01;78.65
51099;BME280;37146;48.210;16.234;2023-04-01T01:48:14;97355.25;;;9.05;80.22
51099;BME280;37146;48.210;16.234;2023-04-01T01:50:40;97366.59;;;8.96;80.94
51099;BME280;37146;48.210;16.234;2023-04-01T01:53:07;97364.25;;;8.91;81.92
51099;BME280;37146;48.210;16.234;2023-04-01T01:55:34;97358.50;;;8.85;82.13
51099;BME280;37146;48.210;16.234;2023-04-01T01:58:47;97354.44;;;8.92;81.68
51099;BME280;37146;48.210;16.234;2023-04-01T02:00:56;97351.47;;;8.84;82.08
51099;BME280;37146;48.210;16.234;2023-04-01T02:03:24;97341.66;;;8.84;81.74
51099;BME280;37146;48.210;16.234;2023-04-01T02:05:51;97341.44;;;8.87;81.31
51099;BME280;37146;48.210;16.234;2023-04-01T02:08:19;97346.25;;;8.82;82.23
51099;BME280;37146;48.210;16.234;2023-04-01T02:10:56;97347.09;;;8.82;81.33
51099;BME280;37146;48.210;16.234;2023-04-01T02:13:28;97355.41;;;8.78;82.09
51099;BME280;37146;48.210;16.234;2023-04-01T02:15:56;97350.94;;;8.78;81.06
51099;BME280;37146;48.210;16.234;2023-04-01T02:18:24;97350.41;;;8.73;81.82
51099;BME280;37146;48.210;16.234;2023-04-01T02:20:49;97347.88;;;8.72;82.21
51099;BME280;37146;48.210;16.234;2023-04-01T02:23:15;97360.44;;;8.70;81.90
51099;BME280;37146;48.210;16.234;2023-04-01T02:25:40;97349.59;;;8.60;82.95
51099;BME280;37146;48.210;16.234;2023-04-01T02:28:06;97366.19;;;8.50;83.65
51099;BME280;37146;48.210;16.234;2023-04-01T02:30:33;97361.63;;;8.53;82.93
51099;BME280;37146;48.210;16.234;2023-04-01T02:33:00;97374.44;;;8.47;83.49
51099;BME280;37146;48.210;16.234;2023-04-01T02:35:25;97363.34;;;8.54;83.30
51099;BME280;37146;48.210;16.234;2023-04-01T02:37:52;97362.25;;;8.43;83.61
51099;BME280;37146;48.210;16.234;2023-04-01T02:40:18;97366.19;;;8.50;83.73
51099;BME280;37146;48.210;16.234;2023-04-01T02:42:44;97367.13;;;8.36;84.08
51099;BME280;37146;48.210;16.234;2023-04-01T02:45:09;97367.88;;;8.39;83.79
51099;BME280;37146;48.210;16.234;2023-04-01T02:47:35;97369.41;;;8.56;81.83
51099;BME280;37146;48.210;16.234;2023-04-01T02:50:00;97368.31;;;8.45;82.79
51099;BME280;37146;48.210;16.234;2023-04-01T02:52:26;97369.16;;;8.46;82.99
51099;BME280;37146;48.210;16.234;2023-04-01T02:54:51;97377.22;;;8.59;83.19
51099;BME280;37146;48.210;16.234;2023-04-01T02:57:16;97364.91;;;8.43;85.76
51099;BME280;37146;48.210;16.234;2023-04-01T02:59:41;97383.13;;;8.36;87.20
51099;BME280;37146;48.210;16.234;2023-04-01T03:02:07;97382.59;;;8.44;86.00
51099;BME280;37146;48.210;16.234;2023-04-01T03:04:32;97378.53;;;8.39;86.86
51099;BME280;37146;48.210;16.234;2023-04-01T03:06:57;97383.88;;;8.26;88.51
51099;BME280;37146;48.210;16.234;2023-04-01T03:09:22;97386.53;;;8.26;87.01
51099;BME280;37146;48.210;16.234;2023-04-01T03:11:48;97386.53;;;8.26;86.42
51099;BME280;37146;48.210;16.234;2023-04-01T03:14:13;97387.19;;;8.29;86.31
51099;BME280;37146;48.210;16.234;2023-04-01T03:16:38;97381.72;;;8.31;84.80
51099;BME280;37146;48.210;16.234;2023-04-01T03:19:03;97375.00;;;8.25;85.68
51099;BME280;37146;48.210;16.234;2023-04-01T03:21:29;97380.25;;;8.27;84.86
51099;BME280;37146;48.210;16.234;2023-04-01T03:23:54;97391.00;;;8.25;85.40
51099;BME280;37146;48.210;16.234;2023-04-01T03:26:19;97400.69;;;8.13;87.32
51099;BME280;37146;48.210;16.234;2023-04-01T03:28:46;97397.72;;;8.31;85.33
51099;BME280;37146;48.210;16.234;2023-04-01T03:31:11;97391.31;;;8.20;86.74
51099;BME280;37146;48.210;16.234;2023-04-01T03:33:37;97394.72;;;8.10;87.33
51099;BME280;37146;48.210;16.234;2023-04-01T03:36:02;97403.69;;;8.22;85.88
51099;BME280;37146;48.210;16.234;2023-04-01T03:38:31;97406.44;;;8.20;85.85
51099;BME280;37146;48.210;16.234;2023-04-01T03:40:56;97394.94;;;8.19;85.43
51099;BME280;37146;48.210;16.234;2023-04-01T03:43:21;97401.34;;;8.30;84.61
51099;BME280;37146;48.210;16.234;2023-04-01T03:45:48;97396.00;;;8.17;85.90
51099;BME280;37146;48.210;16.234;2023-04-01T03:48:13;97396.13;;;8.15;86.35
51099;BME280;37146;48.210;16.234;2023-04-01T03:50:39;97402.16;;;8.17;86.31
51099;BME280;37146;48.210;16.234;2023-04-01T03:53:04;97400.78;;;8.12;85.90
51099;BME280;37146;48.210;16.234;2023-04-01T03:55:30;97391.63;;;8.03;86.08
51099;BME280;37146;48.210;16.234;2023-04-01T03:57:55;97394.09;;;8.19;85.22
51099;BME280;37146;48.210;16.234;2023-04-01T04:00:20;97393.44;;;8.15;85.54
51099;BME280;37146;48.210;16.234;2023-04-01T04:02:46;97388.66;;;8.20;84.78
51099;BME280;37146;48.210;16.234;2023-04-01T04:05:11;97387.69;;;8.22;84.63
51099;BME280;37146;48.210;16.234;2023-04-01T04:07:36;97389.81;;;8.16;85.03
51099;BME280;37146;48.210;16.234;2023-04-01T04:10:02;97377.47;;;8.28;84.05
51099;BME280;37146;48.210;16.234;2023-04-01T04:12:27;97378.63;;;8.24;83.76
51099;BME280;37146;48.210;16.234;2023-04-01T04:14:52;97379.50;;;8.25;83.87
51099;BME280;37146;48.210;16.234;2023-04-01T04:17:18;97368.50;;;8.16;84.51
51099;BME280;37146;48.210;16.234;2023-04-01T04:19:43;97375.56;;;8.30;82.76
51099;BME280;37146;48.210;16.234;2023-04-01T04:22:08;97377.88;;;8.22;83.84
51099;BME280;37146;48.210;16.234;2023-04-01T04:24:34;97375.56;;;8.30;82.13
51099;BME280;37146;48.210;16.234;2023-04-01T04:27:00;97375.75;;;8.14;83.73
51099;BME280;37146;48.210;16.234;2023-04-01T04:29:25;97379.06;;;8.18;83.36
51099;BME280;37146;48.210;16.234;2023-04-01T04:31:50;97374.69;;;8.30;82.44
51099;BME280;37146;48.210;16.234;2023-04-01T04:34:15;97361.19;;;8.33;82.35
51099;BME280;37146;48.210;16.234;2023-04-01T04:36:41;97381.28;;;8.24;83.16
51099;BME280;37146;48.210;16.234;2023-04-01T04:39:06;97372.25;;;8.27;82.55
51099;BME280;37146;48.210;16.234;2023-04-01T04:41:31;97375.13;;;8.24;82.59
51099;BME280;37146;48.210;16.234;2023-04-01T04:43:57;97391.75;;;8.14;83.34
51099;BME280;37146;48.210;16.234;2023-04-01T04:46:23;97383.88;;;8.26;82.82
51099;BME280;37146;48.210;16.234;2023-04-01T04:48:48;97383.53;;;8.17;83.94
51099;BME280;37146;48.210;16.234;2023-04-01T04:51:17;97376.22;;;8.21;83.44
51099;BME280;37146;48.210;16.234;2023-04-01T04:53:43;97381.41;;;8.23;83.25
51099;BME280;37146;48.210;16.234;2023-04-01T04:56:08;97384.72;;;8.13;83.90
51099;BME280;37146;48.210;16.234;2023-04-01T04:58:34;97383.53;;;8.17;83.37
51099;BME280;37146;48.210;16.234;2023-04-01T05:01:04;97387.69;;;8.22;83.66
51099;BME280;37146;48.210;16.234;2023-04-01T05:03:30;97381.63;;;8.19;83.05
51099;BME280;37146;48.210;16.234;2023-04-01T05:05:55;97385.97;;;8.20;82.88
51099;BME280;37146;48.210;16.234;2023-04-01T05:08:20;97389.59;;;8.19;83.59
51099;BME280;37146;48.210;16.234;2023-04-01T05:10:46;97387.69;;;8.22;83.61
51099;BME280;37146;48.210;16.234;2023-04-01T05:13:11;97377.88;;;8.22;83.41
51099;BME280;37146;48.210;16.234;2023-04-01T05:15:36;97380.03;;;8.30;82.98
51099;BME280;37146;48.210;16.234;2023-04-01T05:18:02;97369.38;;;8.30;83.07
51099;BME280;37146;48.210;16.234;2023-04-01T05:20:27;97367.47;;;8.32;83.42
51099;BME280;37146;48.210;16.234;2023-04-01T05:22:56;97378.31;;;8.29;83.77
51099;BME280;37146;48.210;16.234;2023-04-01T05:25:22;97372.16;;;8.41;83.17
51099;BME280;37146;48.210;16.234;2023-04-01T05:27:47;97374.59;;;8.44;83.18
51099;BME280;37146;48.210;16.234;2023-04-01T05:30:12;97375.34;;;8.46;83.47
51099;BME280;37146;48.210;16.234;2023-04-01T05:32:37;97379.44;;;8.52;83.27
51099;BME280;37146;48.210;16.234;2023-04-01T05:35:03;97389.03;;;8.55;83.52
51099;BME280;37146;48.210;16.234;2023-04-01T05:37:28;97383.50;;;8.58;83.37
51099;BME280;37146;48.210;16.234;2023-04-01T05:39:53;97394.78;;;8.61;83.45
51099;BME280;37146;48.210;16.234;2023-04-01T05:42:18;97391.78;;;8.66;82.90
51099;BME280;37146;48.210;16.234;2023-04-01T05:44:44;97393.94;;;8.74;82.63
51099;BME280;37146;48.210;16.234;2023-04-01T05:47:09;97398.59;;;8.83;82.30
51099;BME280;37146;48.210;16.234;2023-04-01T05:49:34;97401.91;;;8.87;81.82
51099;BME280;37146;48.210;16.234;2023-04-01T05:52:00;97400.50;;;8.94;81.90
51099;BME280;37146;48.210;16.234;2023-04-01T05:54:25;97393.88;;;9.00;81.62
51099;BME280;37146;48.210;16.234;2023-04-01T05:56:50;97396.75;;;9.09;81.25
51099;BME280;37146;48.210;16.234;2023-04-01T05:59:16;97408.69;;;9.04;81.81
51099;BME280;37146;48.210;16.234;2023-04-01T06:01:41;97409.88;;;9.12;81.01
51099;BME280;37146;48.210;16.234;2023-04-01T06:04:09;97425.72;;;9.27;80.55
51099;BME280;37146;48.210;16.234;2023-04-01T06:06:35;97414.69;;;9.44;81.00
51099;BME280;37146;48.210;16.234;2023-04-01T06:09:06;97428.25;;;9.41;80.13
51099;BME280;37146;48.210;16.234;2023-04-01T06:21:43;97444.53;;;9.63;80.00
51099;BME280;37146;48.210;16.234;2023-04-01T06:29:44;97450.91;;;9.73;80.35
51099;BME280;37146;48.210;16.234;2023-04-01T06:32:16;97441.25;;;9.83;79.72
51099;BME280;37146;48.210;16.234;2023-04-01T06:47:18;97443.91;;;10.08;77.63
51099;BME280;37146;48.210;16.234;2023-04-01T06:52:19;97434.91;;;10.09;77.41
51099;BME280;37146;48.210;16.234;2023-04-01T06:54:48;97434.75;;;10.23;77.29
51099;BME280;37146;48.210;16.234;2023-04-01T06:57:23;97439.22;;;10.47;76.49
51099;BME280;37146;48.210;16.234;2023-04-01T06:59:54;97436.69;;;10.68;75.11
51099;BME280;37146;48.210;16.234;2023-04-01T07:02:34;97431.34;;;10.68;75.41
51099;BME280;37146;48.210;16.234;2023-04-01T07:05:02;97423.69;;;10.75;74.28
51099;BME280;37146;48.210;16.234;2023-04-01T07:07:31;97431.22;;;10.58;75.04
51099;BME280;37146;48.210;16.234;2023-04-01T07:09:58;97437.56;;;11.03;74.13
51099;BME280;37146;48.210;16.234;2023-04-01T07:12:33;97437.19;;;10.73;73.01
51099;BME280;37146;48.210;16.234;2023-04-01T07:15:03;97434.63;;;10.72;74.37
51099;BME280;37146;48.210;16.234;2023-04-01T07:17:30;97435.22;;;10.64;73.90
51099;BME280;37146;48.210;16.234;2023-04-01T07:22:41;97447.34;;;10.45;74.60
51099;BME280;37146;48.210;16.234;2023-04-01T07:25:26;97451.34;;;10.51;74.71
51099;BME280;37146;48.210;16.234;2023-04-01T07:27:53;97435.22;;;10.28;74.90
51099;BME280;37146;48.210;16.234;2023-04-01T07:30:22;97445.59;;;10.80;74.11
51099;BME280;37146;48.210;16.234;2023-04-01T07:50:36;97436.25;;;11.86;68.63
51099;BME280;37146;48.210;16.234;2023-04-01T07:53:15;97451.41;;;11.65;68.24
51099;BME280;37146;48.210;16.234;2023-04-01T07:58:32;97453.56;;;11.82;68.07
51099;BME280;37146;48.210;16.234;2023-04-01T08:06:32;97459.03;;;12.25;64.49
51099;BME280;37146;48.210;16.234;2023-04-01T08:14:31;97466.22;;;13.30;62.79
51099;BME280;37146;48.210;16.234;2023-04-01T08:22:42;97462.00;;;13.37;62.68
51099;BME280;37146;48.210;16.234;2023-04-01T08:25:10;97476.63;;;13.23;61.60
51099;BME280;37146;48.210;16.234;2023-04-01T08:27:44;97482.63;;;12.84;62.58
51099;BME280;37146;48.210;16.234;2023-04-01T08:30:20;97473.13;;;13.64;59.66
51099;BME280;37146;48.210;16.234;2023-04-01T08:35:26;97476.16;;;13.08;61.21
51099;BME280;37146;48.210;16.234;2023-04-01T08:37:53;97487.88;;;13.07;61.26
51099;BME280;37146;48.210;16.234;2023-04-01T08:40:35;97485.97;;;12.56;60.84
51099;BME280;37146;48.210;16.234;2023-04-01T08:43:09;97472.84;;;14.27;56.40
51099;BME280;37146;48.210;16.234;2023-04-01T08:48:19;97476.34;;;13.48;58.97
51099;BME280;37146;48.210;16.234;2023-04-01T09:09:47;97486.66;;;13.93;55.29
51099;BME280;37146;48.210;16.234;2023-04-01T09:25:19;97519.03;;;12.77;59.19
51099;BME280;37146;48.210;16.234;2023-04-01T09:27:57;97504.13;;;12.52;59.78
51099;BME280;37146;48.210;16.234;2023-04-01T09:33:08;97505.00;;;16.29;50.70
51099;BME280;37146;48.210;16.234;2023-04-01T09:43:27;97513.53;;;13.52;58.98
51099;BME280;37146;48.210;16.234;2023-04-01T09:46:14;97518.63;;;13.03;57.89
51099;BME280;37146;48.210;16.234;2023-04-01T09:53:53;97523.81;;;13.16;57.95
51099;BME280;37146;48.210;16.234;2023-04-01T10:27:49;97514.94;;;12.62;58.07
51099;BME280;37146;48.210;16.234;2023-04-01T10:56:29;97487.66;;;14.12;53.04
51099;BME280;37146;48.210;16.234;2023-04-01T10:59:03;97490.41;;;14.51;51.93
51099;BME280;37146;48.210;16.234;2023-04-01T11:14:59;97495.88;;;13.28;55.00
51099;BME280;37146;48.210;16.234;2023-04-01T11:30:33;97483.13;;;13.93;52.38
51099;BME280;37146;48.210;16.234;2023-04-01T11:33:05;97489.66;;;13.28;52.90
51099;BME280;37146;48.210;16.234;2023-04-01T11:35:36;97485.41;;;13.25;53.37
51099;BME280;37146;48.210;16.234;2023-04-01T11:40:55;97497.47;;;13.10;53.64
51099;BME280;37146;48.210;16.234;2023-04-01T11:46:12;97497.31;;;13.33;53.42
51099;BME280;37146;48.210;16.234;2023-04-01T11:48:48;97507.34;;;13.61;52.69
51099;BME280;37146;48.210;16.234;2023-04-01T11:53:53;97496.13;;;15.25;49.47
51099;BME280;37146;48.210;16.234;2023-04-01T11:59:11;97491.59;;;15.25;49.81
51099;BME280;37146;48.210;16.234;2023-04-01T12:06:49;97485.69;;;15.02;49.31
51099;BME280;37146;48.210;16.234;2023-04-01T12:22:25;97494.31;;;13.98;52.95
51099;BME280;37146;48.210;16.234;2023-04-01T12:41:17;97495.34;;;14.56;50.50
51099;BME280;37146;48.210;16.234;2023-04-01T12:49:00;97483.47;;;14.78;49.50
51099;BME280;37146;48.210;16.234;2023-04-01T13:04:56;97478.31;;;15.80;47.21
51099;BME280;37146;48.210;16.234;2023-04-01T13:10:13;97469.72;;;15.66;47.18
51099;BME280;37146;48.210;16.234;2023-04-01T13:15:35;97459.97;;;15.27;47.44
51099;BME280;37146;48.210;16.234;2023-04-01T13:18:09;97466.94;;;15.58;46.46
51099;BME280;37146;48.210;16.234;2023-04-01T13:23:17;97472.13;;;14.64;47.91
51099;BME280;37146;48.210;16.234;2023-04-01T13:28:23;97477.50;;;14.64;49.22
51099;BME280;37146;48.210;16.234;2023-04-01T13:43:51;97466.28;;;16.02;45.95
51099;BME280;37146;48.210;16.234;2023-04-01T13:46:28;97474.28;;;15.94;46.51
51099;BME280;37146;48.210;16.234;2023-04-01T14:02:24;97457.81;;;14.34;48.53
51099;BME280;37146;48.210;16.234;2023-04-01T14:25:12;97456.19;;;15.10;45.66
51099;BME280;37146;48.210;16.234;2023-04-01T14:30:41;97457.69;;;14.85;44.63
51099;BME280;37146;48.210;16.234;2023-04-01T14:33:23;97456.53;;;14.78;44.86
51099;BME280;37146;48.210;16.234;2023-04-01T14:35:58;97451.47;;;14.75;45.34
51099;BME280;37146;48.210;16.234;2023-04-01T14:48:38;97453.13;;;14.56;44.29
51099;BME280;37146;48.210;16.234;2023-04-01T14:51:08;97446.66;;;14.68;44.81
51099;BME280;37146;48.210;16.234;2023-04-01T14:53:36;97449.75;;;14.64;45.91
51099;BME280;37146;48.210;16.234;2023-04-01T14:56:03;97458.09;;;14.90;44.28
51099;BME280;37146;48.210;16.234;2023-04-01T14:58:43;97450.59;;;14.54;44.57
51099;BME280;37146;48.210;16.234;2023-04-01T15:03:39;97447.34;;;14.51;45.52
51099;BME280;37146;48.210;16.234;2023-04-01T15:06:13;97454.31;;;14.44;45.27
51099;BME280;37146;48.210;16.234;2023-04-01T15:19:42;97452.88;;;14.10;48.45
51099;BME280;37146;48.210;16.234;2023-04-01T15:22:22;97462.47;;;13.93;49.03
51099;BME280;37146;48.210;16.234;2023-04-01T15:32:46;97470.81;;;13.90;51.41
51099;BME280;37146;48.210;16.234;2023-04-01T15:35:19;97481.25;;;13.73;52.33
51099;BME280;37146;48.210;16.234;2023-04-01T15:42:59;97508.44;;;13.28;54.38
51099;BME280;37146;48.210;16.234;2023-04-01T15:45:42;97501.09;;;12.99;55.21
51099;BME280;37146;48.210;16.234;2023-04-01T15:48:38;97512.28;;;13.04;55.69
51099;BME280;37146;48.210;16.234;2023-04-01T15:53:51;97501.13;;;13.09;57.21
51099;BME280;37146;48.210;16.234;2023-04-01T16:01:21;97487.22;;;12.94;58.08
51099;BME280;37146;48.210;16.234;2023-04-01T16:03:59;97497.16;;;13.03;57.95
51099;BME280;37146;48.210;16.234;2023-04-01T16:06:45;97487.94;;;12.75;57.04
51099;BME280;37146;48.210;16.234;2023-04-01T16:11:59;97500.25;;;12.77;58.15
51099;BME280;37146;48.210;16.234;2023-04-01T16:17:09;97495.19;;;12.63;58.30
51099;BME280;37146;48.210;16.234;2023-04-01T16:22:31;97505.97;;;12.51;59.34
51099;BME280;37146;48.210;16.234;2023-04-01T16:30:22;97523.72;;;12.31;61.27
51099;BME280;37146;48.210;16.234;2023-04-01T16:33:02;97525.59;;;12.19;61.82
51099;BME280;37146;48.210;16.234;2023-04-01T16:38:09;97551.22;;;12.01;63.32
51099;BME280;37146;48.210;16.234;2023-04-01T16:43:23;97559.38;;;11.99;63.45
51099;BME280;37146;48.210;16.234;2023-04-01T16:51:16;97574.81;;;11.84;63.43
51099;BME280;37146;48.210;16.234;2023-04-01T16:53:43;97585.91;;;11.57;64.09
51099;BME280;37146;48.210;16.234;2023-04-01T16:56:16;97593.19;;;11.55;64.61
51099;BME280;37146;48.210;16.234;2023-04-01T17:01:43;97582.59;;;11.31;66.31
51099;BME280;37146;48.210;16.234;2023-04-01T17:04:16;97579.75;;;11.09;68.07
51099;BME280;37146;48.210;16.234;2023-04-01T17:06:53;97577.34;;;11.06;68.58
51099;BME280;37146;48.210;16.234;2023-04-01T17:09:26;97592.75;;;11.03;69.36
51099;BME280;37146;48.210;16.234;2023-04-01T17:14:44;97606.16;;;10.78;71.24
51099;BME280;37146;48.210;16.234;2023-04-01T17:17:27;97612.66;;;10.87;71.26
51099;BME280;37146;48.210;16.234;2023-04-01T17:25:11;97613.47;;;10.52;73.55
51099;BME280;37146;48.210;16.234;2023-04-01T17:27:51;97619.22;;;10.59;73.64
51099;BME280;37146;48.210;16.234;2023-04-01T17:33:10;97616.59;;;10.46;74.50
51099;BME280;37146;48.210;16.234;2023-04-01T18:07:16;97673.03;;;9.65;80.21
51099;BME280;37146;48.210;16.234;2023-04-01T18:25:46;97685.81;;;9.47;80.31
51099;BME280;37146;48.210;16.234;2023-04-01T18:30:41;97714.09;;;9.37;81.39
51099;BME280;37146;48.210;16.234;2023-04-01T18:33:14;97709.00;;;9.47;81.15
51099;BME280;37146;48.210;16.234;2023-04-01T18:38:12;97711.00;;;9.43;81.69
51099;BME280;37146;48.210;16.234;2023-04-01T18:45:43;97735.00;;;9.43;82.17
51099;BME280;37146;48.210;16.234;2023-04-01T18:50:52;97748.34;;;9.30;83.04
51099;BME280;37146;48.210;16.234;2023-04-01T18:55:59;97753.44;;;9.20;84.50
51099;BME280;37146;48.210;16.234;2023-04-01T18:58:33;97753.34;;;9.22;84.54
51099;BME280;37146;48.210;16.234;2023-04-01T19:01:12;97766.78;;;9.20;84.34
51099;BME280;37146;48.210;16.234;2023-04-01T19:06:48;97772.22;;;9.19;84.79
51099;BME280;37146;48.210;16.234;2023-04-01T19:19:59;97768.69;;;8.91;85.81
51099;BME280;37146;48.210;16.234;2023-04-01T19:27:32;97780.97;;;8.93;85.77
51099;BME280;37146;48.210;16.234;2023-04-01T19:30:17;97780.69;;;8.84;86.32
51099;BME280;37146;48.210;16.234;2023-04-01T19:53:59;97800.13;;;8.71;87.66
51099;BME280;37146;48.210;16.234;2023-04-01T19:56:39;97798.28;;;8.59;88.38
51099;BME280;37146;48.210;16.234;2023-04-01T20:04:43;97811.97;;;8.67;88.01
51099;BME280;37146;48.210;16.234;2023-04-01T20:07:10;97808.25;;;8.70;88.21
51099;BME280;37146;48.210;16.234;2023-04-01T20:09:45;97811.38;;;8.62;88.68
51099;BME280;37146;48.210;16.234;2023-04-01T20:12:18;97802.56;;;8.61;88.84
51099;BME280;37146;48.210;16.234;2023-04-01T20:14:51;97806.94;;;8.62;89.16
51099;BME280;37146;48.210;16.234;2023-04-01T20:25:27;97804.75;;;8.55;89.26
51099;BME280;37146;48.210;16.234;2023-04-01T20:30:27;97817.97;;;8.56;89.16
51099;BME280;37146;48.210;16.234;2023-04-01T20:33:01;97816.06;;;8.58;89.39
51099;BME280;37146;48.210;16.234;2023-04-01T20:40:51;97817.84;;;8.72;87.78
51099;BME280;37146;48.210;16.234;2023-04-01T20:46:10;97809.00;;;8.72;87.71
51099;BME280;37146;48.210;16.234;2023-04-01T20:48:35;97810.31;;;8.79;87.21
51099;BME280;37146;48.210;16.234;2023-04-01T20:54:22;97813.09;;;8.77;87.14
51099;BME280;37146;48.210;16.234;2023-04-01T20:56:57;97803.38;;;8.76;87.49
51099;BME280;37146;48.210;16.234;2023-04-01T20:59:34;97812.13;;;8.78;88.44
51099;BME280;37146;48.210;16.234;2023-04-01T21:02:11;97805.28;;;8.74;88.78
51099;BME280;37146;48.210;16.234;2023-04-01T21:04:46;97806.16;;;8.75;89.56
51099;BME280;37146;48.210;16.234;2023-04-01T21:07:19;97805.03;;;8.64;90.34
51099;BME280;37146;48.210;16.234;2023-04-01T21:10:29;97801.19;;;8.69;88.73
51099;BME280;37146;48.210;16.234;2023-04-01T21:29:58;97820.25;;;8.62;91.97
51099;BME280;37146;48.210;16.234;2023-04-01T21:39:54;97833.84;;;8.43;96.36
51099;BME280;37146;48.210;16.234;2023-04-01T21:45:03;97833.72;;;8.45;96.97
51099;BME280;37146;48.210;16.234;2023-04-01T22:14:31;97841.03;;;8.12;100.00
51099;BME280;37146;48.210;16.234;2023-04-01T22:16:59;97850.19;;;8.23;100.00
51099;BME280;37146;48.210;16.234;2023-04-01T22:24:43;97850.97;;;8.25;99.45
51099;BME280;37146;48.210;16.234;2023-04-01T22:40:18;97858.75;;;8.42;99.34
51099;BME280;37146;48.210;16.234;2023-04-01T22:45:55;97862.56;;;8.38;98.40
51099;BME280;37146;48.210;16.234;2023-04-01T22:48:40;97859.16;;;8.36;98.44
51099;BME280;37146;48.210;16.234;2023-04-01T22:51:15;97856.38;;;8.38;97.67
51099;BME280;37146;48.210;16.234;2023-04-01T22:56:55;97859.34;;;8.33;96.21
51099;BME280;37146;48.210;16.234;2023-04-01T22:59:03;97861.13;;;8.47;96.14
51099;BME280;37146;48.210;16.234;2023-04-01T23:01:32;97868.66;;;8.40;97.54
51099;BME280;37146;48.210;16.234;2023-04-01T23:04:02;97860.47;;;8.43;97.07
51099;BME280;37146;48.210;16.234;2023-04-01T23:06:33;97865.22;;;8.38;96.98
51099;BME280;37146;48.210;16.234;2023-04-01T23:11:33;97864.84;;;8.44;95.28
51099;BME280;37146;48.210;16.234;2023-04-01T23:16:34;97869.13;;;8.47;94.56
51099;BME280;37146;48.210;16.234;2023-04-01T23:19:13;97870.78;;;8.49;93.32
51099;BME280;37146;48.210;16.234;2023-04-01T23:21:44;97866.31;;;8.50;93.98
51099;BME280;37146;48.210;16.234;2023-04-01T23:26:52;97868.88;;;8.51;93.49
51099;BME280;37146;48.210;16.234;2023-04-01T23:29:19;97873.56;;;8.48;93.85
51099;BME280;37146;48.210;16.234;2023-04-01T23:31:58;97872.31;;;8.54;92.25
51099;BME280;37146;48.210;16.234;2023-04-01T23:34:34;97868.88;;;8.51;93.42
51099;BME280;37146;48.210;16.234;2023-04-01T23:37:10;97873.19;;;8.54;92.65
51099;BME280;37146;48.210;16.234;2023-04-01T23:39:45;97873.84;;;8.58;91.33
51099;BME280;37146;48.210;16.234;2023-04-01T23:44:45;97868.69;;;8.55;92.00
51099;BME280;37146;48.210;16.234;2023-04-01T23:47:14;97872.50;;;8.50;93.14
51099;BME280;37146;48.210;16.234;2023-04-01T23:52:40;97872.97;;;8.57;90.23
51099;BME280;37146;48.210;16.234;2023-04-01T23:57:36;97876.59;;;8.56;90.20
